Time;durP1;ratioP1;P1;durP2;ratioP2;P2;SDS_P1;SDS_P2;PMS_P1;PMS_P2;Temp;Humidity;BMP_temperature;BMP_pressure;BME280_temperature;BME280_humidity;BME280_pressure;Samples;Min_cycle;Max_cycle;Signal;HPM_P1;HPM_P2
2022/03/05 00:01:32;;;;;;;14.57;9.53;;;;;;;-2.75;100.00;101600.47;5045371;28;20469;-74
2022/03/05 00:03:58;;;;;;;18.43;9.03;;;;;;;-2.73;100.00;101603.94;5046251;28;20469;-73
2022/03/05 00:06:25;;;;;;;16.00;9.03;;;;;;;-2.77;100.00;101600.38;5046749;28;20463;-74
2022/03/05 00:08:53;;;;;;;15.70;9.20;;;;;;;-2.79;100.00;101602.00;5046085;28;20197;-73
2022/03/05 00:11:19;;;;;;;14.77;9.17;;;;;;;-2.80;100.00;101604.47;5046089;28;20496;-74
2022/03/05 00:13:45;;;;;;;15.00;9.00;;;;;;;-2.79;100.00;101608.78;5043144;28;20453;-74
2022/03/05 00:16:13;;;;;;;14.37;9.03;;;;;;;-2.82;100.00;101606.97;5047777;28;20452;-76
2022/03/05 00:18:39;;;;;;;12.70;9.10;;;;;;;-2.82;100.00;101603.53;5063292;28;20462;-73
2022/03/05 00:21:06;;;;;;;14.73;8.93;;;;;;;-2.81;100.00;101601.06;5046004;28;20228;-74
2022/03/05 00:23:32;;;;;;;15.00;9.80;;;;;;;-2.85;100.00;101604.28;5047390;28;20986;-74
2022/03/05 00:26:00;;;;;;;13.37;8.67;;;;;;;-2.88;100.00;101599.91;5046521;28;20442;-74
2022/03/05 00:28:27;;;;;;;11.37;8.07;;;;;;;-2.87;100.00;101603.34;5045581;28;20453;-74
2022/03/05 00:30:58;;;;;;;12.13;8.37;;;;;;;-2.87;100.00;101605.88;5046411;28;20478;-74
2022/03/05 00:33:24;;;;;;;12.67;8.83;;;;;;;-2.84;100.00;101603.47;5042408;28;20292;-74
2022/03/05 00:35:50;;;;;;;14.87;8.83;;;;;;;-2.87;100.00;101598.22;5047810;28;20464;-73
2022/03/05 00:38:17;;;;;;;16.27;8.53;;;;;;;-2.88;100.00;101599.06;5047082;28;20454;-74
2022/03/05 00:40:44;;;;;;;16.43;10.23;;;;;;;-2.90;100.00;101603.22;5047954;28;20484;-74
2022/03/05 00:43:11;;;;;;;18.10;9.33;;;;;;;-2.94;100.00;101607.28;5046178;28;20481;-74
2022/03/05 00:45:38;;;;;;;13.87;9.67;;;;;;;-2.94;100.00;101603.88;5045001;28;20199;-74
2022/03/05 00:48:05;;;;;;;17.17;9.43;;;;;;;-2.94;100.00;101603.88;5041170;28;20660;-73
2022/03/05 00:50:32;;;;;;;16.60;9.83;;;;;;;-2.99;100.00;101602.78;5042944;28;20265;-74
2022/03/05 00:52:58;;;;;;;19.13;10.67;;;;;;;-3.00;100.00;101598.50;5044935;28;20457;-74
2022/03/05 00:55:25;;;;;;;17.30;10.37;;;;;;;-3.02;100.00;101603.53;5041222;28;20211;-73
2022/03/05 00:57:52;;;;;;;17.83;10.63;;;;;;;-3.05;100.00;101606.81;5045305;28;20673;-74
2022/03/05 01:00:20;;;;;;;18.07;10.70;;;;;;;-3.03;100.00;101611.13;5043349;28;20596;-74
2022/03/05 01:02:46;;;;;;;16.40;10.17;;;;;;;-3.06;100.00;101616.94;5042912;28;20470;-74
2022/03/05 01:05:13;;;;;;;17.70;10.87;;;;;;;-3.09;100.00;101612.59;5039327;28;20473;-74
2022/03/05 01:07:39;;;;;;;15.67;10.20;;;;;;;-3.08;100.00;101616.91;5046008;28;20472;-74
2022/03/05 01:10:07;;;;;;;15.57;9.53;;;;;;;-3.08;100.00;101611.81;5041305;28;20827;-74
2022/03/05 01:12:33;;;;;;;14.87;9.70;;;;;;;-3.14;100.00;101613.19;5046670;28;20214;-74
2022/03/05 01:15:00;;;;;;;13.43;9.20;;;;;;;-3.14;100.00;101606.41;5040888;28;20997;-74
2022/03/05 01:17:27;;;;;;;14.77;9.70;;;;;;;-3.17;100.00;101602.84;5046379;28;20540;-74
2022/03/05 01:19:54;;;;;;;17.83;10.53;;;;;;;-3.19;100.00;101605.31;5044241;28;20467;-74
2022/03/05 01:22:20;;;;;;;15.97;9.30;;;;;;;-3.20;100.00;101601.03;5046028;28;21015;-74
2022/03/05 01:24:47;;;;;;;16.03;9.40;;;;;;;-3.23;100.00;101598.34;5046397;28;21193;-73
2022/03/05 01:27:13;;;;;;;14.10;9.23;;;;;;;-3.26;100.00;101596.50;5044968;28;21150;-74
2022/03/05 01:29:40;;;;;;;14.87;8.87;;;;;;;-3.28;100.00;101594.69;5052914;28;20448;-76
2022/03/05 01:32:07;;;;;;;14.83;9.23;;;;;;;-3.35;100.00;101590.13;5054866;28;20476;-76
2022/03/05 01:34:34;;;;;;;14.97;9.00;;;;;;;-3.43;100.00;101590.66;5048179;28;20450;-76
2022/03/05 01:37:01;;;;;;;15.87;9.30;;;;;;;-3.47;100.00;101587.88;5049091;28;20512;-76
2022/03/05 01:39:27;;;;;;;14.87;8.47;;;;;;;-3.53;100.00;101578.28;5048088;28;20457;-76
2022/03/05 01:41:55;;;;;;;12.90;8.37;;;;;;;-3.55;100.00;101579.00;5048865;28;20529;-75
2022/03/05 01:44:21;;;;;;;15.03;9.40;;;;;;;-3.57;100.00;101588.25;5048703;28;20461;-76
2022/03/05 01:46:48;;;;;;;12.73;8.50;;;;;;;-3.59;100.00;101585.63;5047844;28;20457;-76
2022/03/05 01:49:15;;;;;;;15.23;8.97;;;;;;;-3.58;100.00;101583.97;5048646;28;20456;-76
2022/03/05 01:51:44;;;;;;;16.97;9.77;;;;;;;-3.57;100.00;101583.16;5047568;28;20576;-76
2022/03/05 01:54:11;;;;;;;15.67;9.83;;;;;;;-3.64;100.00;101582.88;5049660;28;20442;-76
2022/03/05 01:56:39;;;;;;;14.60;9.07;;;;;;;-3.67;100.00;101586.97;5047630;28;20489;-74
2022/03/05 01:59:06;;;;;;;12.73;9.03;;;;;;;-3.70;100.00;101571.50;5052421;28;20986;-77
2022/03/05 02:01:32;;;;;;;15.40;8.77;;;;;;;-3.65;100.00;101582.81;5047811;28;20479;-76
2022/03/05 02:03:59;;;;;;;13.20;8.50;;;;;;;-3.68;100.00;101582.66;5050364;28;21051;-75
2022/03/05 02:06:26;;;;;;;11.70;8.43;;;;;;;-3.73;100.00;101579.00;5048177;28;20499;-75
2022/03/05 02:08:55;;;;;;;18.57;9.63;;;;;;;-3.75;100.00;101567.88;5050048;28;20475;-76
2022/03/05 02:11:22;;;;;;;13.00;9.03;;;;;;;-3.76;100.00;101574.66;5051361;28;21086;-76
2022/03/05 02:13:49;;;;;;;14.77;9.13;;;;;;;-3.79;100.00;101576.19;5050089;28;20507;-76
2022/03/05 02:16:15;;;;;;;17.63;9.67;;;;;;;-3.82;100.00;101569.25;5051077;28;20482;-75
2022/03/05 02:18:45;;;;;;;15.00;9.20;;;;;;;-3.72;100.00;101568.88;5050747;28;20467;-76
2022/03/05 02:21:13;;;;;;;15.93;9.20;;;;;;;-3.66;100.00;101579.38;5049600;28;20483;-76
2022/03/05 02:23:40;;;;;;;14.57;8.73;;;;;;;-3.81;100.00;101569.31;5042889;28;20470;-76
2022/03/05 02:26:07;;;;;;;15.17;9.37;;;;;;;-3.82;100.00;101572.69;5047959;28;20451;-76
2022/03/05 02:28:34;;;;;;;14.70;9.67;;;;;;;-3.85;100.00;101566.56;5047676;28;20447;-76
2022/03/05 02:31:01;;;;;;;13.07;8.30;;;;;;;-3.86;100.00;101567.38;5048112;28;20572;-76
2022/03/05 02:33:28;;;;;;;20.03;9.90;;;;;;;-3.83;100.00;101562.41;5049054;28;20985;-76
2022/03/05 02:35:54;;;;;;;14.37;9.27;;;;;;;-3.93;100.00;101563.66;5043193;28;20456;-76
2022/03/05 02:38:24;;;;;;;16.60;9.80;;;;;;;-3.91;100.00;101563.72;5046994;28;20555;-76
2022/03/05 02:40:52;;;;;;;12.87;9.17;;;;;;;-3.86;100.00;101555.50;5047451;28;20846;-76
2022/03/05 02:43:19;;;;;;;14.77;8.77;;;;;;;-3.87;100.00;101563.06;5041830;28;20477;-76
2022/03/05 02:45:46;;;;;;;14.23;8.53;;;;;;;-3.87;100.00;101569.06;5047244;28;20451;-76
2022/03/05 02:52:00;;;;;;;14.93;8.63;;;;;;;-3.97;100.00;101563.41;5046169;28;20490;-76
2022/03/05 02:54:27;;;;;;;14.80;9.23;;;;;;;-3.90;100.00;101568.03;5047215;28;20456;-75
2022/03/05 02:56:54;;;;;;;13.20;8.13;;;;;;;-4.02;100.00;101555.56;5044337;28;20445;-77
2022/03/05 02:59:20;;;;;;;14.03;8.93;;;;;;;-4.06;100.00;101556.22;5047601;28;20459;-76
2022/03/05 03:01:46;;;;;;;15.57;8.20;;;;;;;-4.11;100.00;101562.78;5046242;28;20476;-76
2022/03/05 03:04:13;;;;;;;15.27;9.27;;;;;;;-4.07;100.00;101551.94;5045218;28;20481;-76
2022/03/05 03:06:39;;;;;;;15.77;9.13;;;;;;;-4.16;100.00;101554.03;5046937;28;20462;-76
2022/03/05 03:09:06;;;;;;;13.20;8.87;;;;;;;-4.22;100.00;101559.69;5044307;28;20464;-76
2022/03/05 03:11:35;;;;;;;14.93;9.23;;;;;;;-4.30;100.00;101566.09;5046078;28;20483;-76
2022/03/05 03:14:02;;;;;;;17.13;8.80;;;;;;;-4.31;100.00;101564.31;5046105;28;20459;-76
2022/03/05 03:16:30;;;;;;;14.03;8.80;;;;;;;-4.38;100.00;101566.59;5046676;28;20451;-76
2022/03/05 03:18:56;;;;;;;16.37;8.90;;;;;;;-4.38;100.00;101565.69;5051535;28;20466;-76
2022/03/05 03:21:23;;;;;;;11.87;8.07;;;;;;;-4.37;100.00;101564.91;5050046;28;20466;-76
2022/03/05 03:23:49;;;;;;;15.47;9.40;;;;;;;-4.32;100.00;101560.91;5047344;28;20478;-75
2022/03/05 03:26:16;;;;;;;16.17;8.57;;;;;;;-4.29;100.00;101566.16;5046807;28;20538;-76
2022/03/05 03:28:43;;;;;;;13.30;9.00;;;;;;;-4.43;100.00;101562.94;5047129;28;20459;-76
2022/03/05 03:31:10;;;;;;;15.87;9.53;;;;;;;-4.49;100.00;101562.63;5045550;28;20474;-76
2022/03/05 03:33:36;;;;;;;12.87;8.00;;;;;;;-4.57;100.00;101553.75;5044759;28;20523;-75
2022/03/05 03:36:02;;;;;;;13.00;8.47;;;;;;;-4.58;100.00;101563.03;5047789;28;20474;-75
2022/03/05 03:38:29;;;;;;;14.13;8.30;;;;;;;-4.62;100.00;101560.28;5047450;28;20462;-75
2022/03/05 03:40:55;;;;;;;13.90;8.00;;;;;;;-4.63;100.00;101567.00;5045665;28;20480;-75
2022/03/05 03:43:22;;;;;;;15.43;8.77;;;;;;;-4.65;100.00;101560.09;5046817;28;20474;-76
2022/03/05 03:45:50;;;;;;;13.70;8.30;;;;;;;-4.55;100.00;101564.00;5046584;28;20473;-76
2022/03/05 03:48:16;;;;;;;12.57;8.13;;;;;;;-4.65;100.00;101563.50;5047235;28;20452;-76
2022/03/05 03:50:43;;;;;;;13.50;8.00;;;;;;;-4.75;100.00;101558.75;5050888;28;20491;-76
2022/03/05 03:53:09;;;;;;;14.93;8.47;;;;;;;-4.82;100.00;101566.88;5046176;28;20488;-76
2022/03/05 03:55:36;;;;;;;13.97;8.70;;;;;;;-4.80;100.00;101556.00;5047145;28;20454;-76
2022/03/05 03:58:02;;;;;;;14.57;9.77;;;;;;;-4.92;100.00;101565.53;5045255;28;20473;-76
2022/03/05 04:00:29;;;;;;;14.03;8.33;;;;;;;-4.86;100.00;101568.38;5043404;28;20480;-75
2022/03/05 04:02:57;;;;;;;13.40;9.47;;;;;;;-4.90;100.00;101563.94;5045202;28;21023;-75
2022/03/05 04:05:23;;;;;;;19.17;8.90;;;;;;;-4.96;100.00;101574.69;5048383;28;20989;-76
2022/03/05 04:10:34;;;;;;;12.10;8.50;;;;;;;-4.93;100.00;101576.50;5046218;28;20512;-75
2022/03/05 04:13:00;;;;;;;15.87;8.80;;;;;;;-5.03;100.00;101579.34;5046797;28;20457;-75
2022/03/05 04:15:27;;;;;;;14.27;8.63;;;;;;;-5.11;100.00;101581.50;5045244;28;21057;-76
2022/03/05 04:17:53;;;;;;;11.73;8.20;;;;;;;-5.20;100.00;101584.44;5049847;28;20516;-75
2022/03/05 04:20:21;;;;;;;13.83;8.37;;;;;;;-5.27;100.00;101579.81;5044600;28;20456;-75
2022/03/05 04:22:47;;;;;;;15.20;9.50;;;;;;;-5.32;100.00;101588.88;5046662;28;20457;-76
2022/03/05 04:25:14;;;;;;;13.00;8.53;;;;;;;-5.23;100.00;101580.84;5044616;28;21012;-76
2022/03/05 04:27:40;;;;;;;14.60;8.73;;;;;;;-5.35;100.00;101583.59;5046393;28;20808;-76
2022/03/05 04:30:08;;;;;;;15.33;9.07;;;;;;;-5.38;100.00;101580.88;5045404;28;20461;-76
2022/03/05 04:32:36;;;;;;;12.43;8.13;;;;;;;-5.41;100.00;101585.84;5049889;28;21036;-75
2022/03/05 04:35:03;;;;;;;17.83;8.20;;;;;;;-5.53;100.00;101579.28;5046214;28;20804;-76
2022/03/05 04:37:31;;;;;;;16.20;9.10;;;;;;;-5.49;100.00;101582.00;5046437;28;20979;-75
2022/03/05 04:39:57;;;;;;;14.37;9.20;;;;;;;-5.57;100.00;101587.53;5046046;28;20967;-76
2022/03/05 04:42:24;;;;;;;14.10;8.97;;;;;;;-5.66;100.00;101581.97;5046478;28;20465;-76
2022/03/05 04:44:50;;;;;;;13.00;8.60;;;;;;;-5.67;100.00;101580.19;5046992;28;20488;-75
2022/03/05 04:47:16;;;;;;;15.17;9.23;;;;;;;-5.73;100.00;101569.72;5043264;28;20447;-76
2022/03/05 04:49:44;;;;;;;16.23;9.47;;;;;;;-5.76;100.00;101583.09;5046552;28;20457;-76
2022/03/05 04:52:10;;;;;;;14.73;8.97;;;;;;;-5.73;100.00;101583.28;5046563;28;20518;-76
2022/03/05 04:54:38;;;;;;;14.70;8.67;;;;;;;-5.78;100.00;101587.22;5046463;28;20454;-76
2022/03/05 04:57:05;;;;;;;14.87;9.13;;;;;;;-5.73;100.00;101593.44;5046411;28;20450;-75
2022/03/05 04:59:31;;;;;;;17.40;8.83;;;;;;;-5.71;100.00;101588.44;5045939;28;20449;-76
2022/03/05 05:01:58;;;;;;;12.03;8.63;;;;;;;-5.85;100.00;101584.28;5045682;28;20481;-75
2022/03/05 05:04:24;;;;;;;14.37;8.73;;;;;;;-5.86;100.00;101592.66;5050140;28;20543;-75
2022/03/05 05:06:51;;;;;;;16.10;8.87;;;;;;;-5.96;100.00;101589.66;5049606;28;20468;-75
2022/03/05 05:09:18;;;;;;;15.13;9.27;;;;;;;-6.02;100.00;101590.97;5050237;28;20459;-76
2022/03/05 05:11:46;;;;;;;14.93;8.90;;;;;;;-5.87;100.00;101596.00;5048717;28;20485;-75
2022/03/05 05:14:12;;;;;;;15.27;9.10;;;;;;;-5.87;100.00;101590.91;5049834;28;20453;-75
2022/03/05 05:16:39;;;;;;;13.57;8.60;;;;;;;-5.99;100.00;101599.63;5049456;28;20460;-75
2022/03/05 05:21:50;;;;;;;12.60;8.07;;;;;;;-6.07;100.00;101594.91;5047925;28;20461;-76
2022/03/05 05:24:16;;;;;;;16.13;8.43;;;;;;;-6.11;100.00;101609.09;5049587;28;20473;-76
2022/03/05 05:26:42;;;;;;;15.77;8.53;;;;;;;-5.86;100.00;101600.28;5049603;28;20499;-75
2022/03/05 05:29:11;;;;;;;13.27;8.40;;;;;;;-6.03;100.00;101599.38;5048861;28;20457;-76
2022/03/05 05:31:37;;;;;;;12.33;8.43;;;;;;;-6.15;100.00;101605.50;5049011;28;20484;-76
2022/03/05 05:34:04;;;;;;;15.30;8.77;;;;;;;-6.11;100.00;101606.56;5063714;28;20464;-76
2022/03/05 05:36:31;;;;;;;14.13;8.53;;;;;;;-6.17;100.00;101608.75;5049311;28;20461;-76
2022/03/05 05:38:57;;;;;;;13.83;8.50;;;;;;;-6.21;100.00;101609.34;5049377;28;20528;-76
2022/03/05 05:41:23;;;;;;;14.57;9.20;;;;;;;-6.03;100.00;101612.06;5049279;28;20814;-76
2022/03/05 05:43:50;;;;;;;17.07;9.10;;;;;;;-6.14;100.00;101616.53;5049578;28;20462;-76
2022/03/05 05:46:18;;;;;;;17.40;9.33;;;;;;;-6.23;100.00;101619.41;5047849;28;20462;-76
2022/03/05 05:48:44;;;;;;;16.70;9.33;;;;;;;-6.20;100.00;101617.06;5047256;28;20441;-76
2022/03/05 05:51:11;;;;;;;14.20;9.10;;;;;;;-6.07;100.00;101620.31;5043725;28;20481;-75
2022/03/05 05:53:37;;;;;;;14.00;9.50;;;;;;;-6.06;100.00;101611.91;5047803;28;20469;-76
2022/03/05 05:56:04;;;;;;;14.67;8.47;;;;;;;-6.15;100.00;101614.81;5048061;28;20453;-76
2022/03/05 05:58:30;;;;;;;14.33;8.47;;;;;;;-6.03;100.00;101619.69;5048163;28;20460;-75
2022/03/05 06:00:57;;;;;;;17.23;9.43;;;;;;;-5.98;100.00;101614.09;5053973;28;20480;-76
2022/03/05 06:03:24;;;;;;;22.73;14.90;;;;;;;-6.05;100.00;101618.72;5049409;28;20472;-76
2022/03/05 06:05:51;;;;;;;17.27;12.00;;;;;;;-6.07;100.00;101617.75;5048995;28;20561;-76
2022/03/05 06:08:18;;;;;;;17.43;9.87;;;;;;;-6.10;100.00;101618.47;5048622;28;20457;-76
2022/03/05 06:10:46;;;;;;;16.90;10.07;;;;;;;-6.13;100.00;101624.25;5048795;28;20509;-76
2022/03/05 06:13:12;;;;;;;12.20;8.50;;;;;;;-6.16;100.00;101623.19;5047572;28;20445;-76
2022/03/05 06:15:39;;;;;;;15.23;9.23;;;;;;;-6.18;100.00;101619.69;5047728;28;21138;-76
2022/03/05 06:18:05;;;;;;;17.33;9.23;;;;;;;-6.15;100.00;101624.94;5047232;28;21054;-76
2022/03/05 06:20:33;;;;;;;15.17;9.30;;;;;;;-5.97;100.00;101628.53;5049040;28;20469;-76
2022/03/05 06:22:59;;;;;;;13.53;9.47;;;;;;;-6.07;100.00;101633.00;5048569;28;20941;-76
2022/03/05 06:25:27;;;;;;;15.30;9.23;;;;;;;-5.99;100.00;101627.56;5045669;28;20581;-76
2022/03/05 06:27:53;;;;;;;15.10;9.87;;;;;;;-6.01;100.00;101634.22;5047128;28;20488;-76
2022/03/05 06:30:20;;;;;;;17.63;10.87;;;;;;;-6.00;100.00;101628.34;5048549;28;20464;-76
2022/03/05 06:32:46;;;;;;;18.07;10.60;;;;;;;-5.92;100.00;101632.19;5042369;28;20468;-76
2022/03/05 06:35:13;;;;;;;18.03;9.93;;;;;;;-5.88;100.00;101642.50;5049243;28;20952;-76
2022/03/05 06:37:40;;;;;;;15.97;10.57;;;;;;;-5.92;100.00;101642.34;5046916;28;20456;-76
2022/03/05 06:40:10;;;;;;;17.23;9.80;;;;;;;-5.87;100.00;101645.16;5048834;28;20452;-76
2022/03/05 06:42:36;;;;;;;16.43;10.20;;;;;;;-5.83;100.00;101646.19;5048582;28;20458;-76
2022/03/05 06:45:03;;;;;;;15.63;9.87;;;;;;;-5.79;100.00;101645.56;5043533;28;20466;-76
2022/03/05 06:47:31;;;;;;;17.77;10.20;;;;;;;-5.82;100.00;101650.47;5046224;28;20461;-76
2022/03/05 06:49:57;;;;;;;24.17;11.50;;;;;;;-5.66;100.00;101650.56;5048009;28;20476;-76
2022/03/05 06:52:24;;;;;;;16.27;10.43;;;;;;;-5.67;100.00;101656.44;5048301;28;21046;-76
2022/03/05 06:54:51;;;;;;;16.17;10.97;;;;;;;-5.67;100.00;101656.44;5050896;28;20445;-76
2022/03/05 06:57:18;;;;;;;15.93;11.20;;;;;;;-5.63;100.00;101660.88;5049583;28;20450;-76
2022/03/05 06:59:45;;;;;;;22.93;12.13;;;;;;;-5.45;100.00;101658.50;5048226;28;20449;-76
2022/03/05 07:02:11;;;;;;;21.60;12.90;;;;;;;-5.32;100.00;101658.38;5047435;28;21038;-76
2022/03/05 07:04:37;;;;;;;23.37;14.07;;;;;;;-5.33;100.00;101656.63;5047521;28;20477;-76
2022/03/05 07:07:04;;;;;;;26.60;14.43;;;;;;;-5.30;100.00;101661.00;5047505;28;20928;-76
2022/03/05 07:09:31;;;;;;;26.33;16.50;;;;;;;-5.20;100.00;101662.41;5047357;28;20449;-76
2022/03/05 07:11:59;;;;;;;27.50;15.73;;;;;;;-5.18;100.00;101658.25;5047760;28;20480;-73
2022/03/05 07:14:25;;;;;;;24.20;12.33;;;;;;;-5.11;100.00;101659.47;5047276;28;20452;-73
2022/03/05 07:16:52;;;;;;;34.30;19.63;;;;;;;-5.10;100.00;101657.03;5047596;28;20827;-73
2022/03/05 07:19:18;;;;;;;44.43;19.57;;;;;;;-5.02;100.00;101655.75;5046545;28;20457;-73
2022/03/05 07:21:45;;;;;;;27.40;16.13;;;;;;;-5.00;100.00;101659.25;5047566;28;20462;-76
2022/03/05 07:24:11;;;;;;;26.20;14.70;;;;;;;-4.97;100.00;101661.09;5046286;28;20458;-76
2022/03/05 07:26:38;;;;;;;28.40;14.07;;;;;;;-4.89;100.00;101667.47;5044199;28;20431;-76
2022/03/05 07:29:06;;;;;;;22.60;14.23;;;;;;;-4.90;100.00;101669.94;5047755;28;20457;-76
2022/03/05 07:31:33;;;;;;;24.93;16.00;;;;;;;-4.85;100.00;101666.84;5046386;28;21086;-76
2022/03/05 07:33:59;;;;;;;22.17;15.47;;;;;;;-4.75;100.00;101673.25;5048450;28;20801;-76
2022/03/05 07:36:26;;;;;;;25.33;14.77;;;;;;;-4.68;100.00;101675.34;5048312;28;20449;-76
2022/03/05 07:38:52;;;;;;;26.33;14.63;;;;;;;-4.58;100.00;101674.16;5046179;28;21217;-76
2022/03/05 07:41:19;;;;;;;26.43;15.60;;;;;;;-4.58;100.00;101674.16;5045779;28;20848;-76
2022/03/05 07:43:45;;;;;;;26.40;15.07;;;;;;;-4.50;100.00;101675.44;5046891;28;20457;-76
2022/03/05 07:46:13;;;;;;;30.90;15.00;;;;;;;-4.46;100.00;101684.97;5047907;28;21000;-76
2022/03/05 07:48:40;;;;;;;30.57;17.97;;;;;;;-4.34;100.00;101674.56;5044525;28;20461;-76
2022/03/05 07:51:06;;;;;;;34.90;19.60;;;;;;;-4.28;100.00;101684.19;5043994;28;20827;-77
2022/03/05 07:53:33;;;;;;;39.67;23.47;;;;;;;-4.18;100.00;101671.13;5046873;28;20462;-76
2022/03/05 07:56:00;;;;;;;41.80;25.37;;;;;;;-4.07;100.00;101669.97;5048753;28;20440;-76
2022/03/05 07:58:27;;;;;;;42.87;24.83;;;;;;;-3.95;100.00;101672.28;5046887;28;20465;-76
2022/03/05 08:00:53;;;;;;;50.73;26.17;;;;;;;-3.86;100.00;101669.31;5044766;28;20474;-76
2022/03/05 08:03:21;;;;;;;54.77;29.27;;;;;;;-3.72;100.00;101672.53;5043937;28;20482;-76
2022/03/05 08:05:47;;;;;;;35.13;18.53;;;;;;;-3.51;100.00;101673.56;5046337;28;20493;-76
2022/03/05 08:08:14;;;;;;;33.87;17.93;;;;;;;-3.37;100.00;101673.34;5049255;28;20602;-76
2022/03/05 08:10:40;;;;;;;30.63;18.47;;;;;;;-3.18;100.00;101675.97;5045869;28;20484;-76
2022/03/05 08:13:07;;;;;;;46.63;23.83;;;;;;;-3.07;100.00;101673.91;5044449;28;20455;-76
2022/03/05 08:15:33;;;;;;;33.97;19.73;;;;;;;-2.98;100.00;101674.31;5048903;28;20448;-76
2022/03/05 08:18:01;;;;;;;37.37;19.70;;;;;;;-2.82;100.00;101672.47;5045972;28;20466;-76
2022/03/05 08:20:31;;;;;;;36.33;20.03;;;;;;;-2.68;100.00;101666.28;5044640;28;20577;-74
2022/03/05 08:22:58;;;;;;;37.67;17.97;;;;;;;-2.47;100.00;101669.78;5041805;28;20448;-74
2022/03/05 08:25:26;;;;;;;36.53;19.00;;;;;;;-2.29;100.00;101679.06;5044907;28;20994;-73
2022/03/05 08:27:52;;;;;;;34.97;18.10;;;;;;;-2.14;100.00;101668.63;5044699;28;20456;-74
2022/03/05 08:30:20;;;;;;;40.50;20.53;;;;;;;-2.01;100.00;101673.44;5045685;28;20457;-74
2022/03/05 08:32:47;;;;;;;40.47;21.20;;;;;;;-1.84;100.00;101678.41;5046874;28;20459;-74
2022/03/05 08:35:14;;;;;;;37.87;20.00;;;;;;;-1.59;100.00;101685.38;5045623;28;20210;-74
2022/03/05 08:37:43;;;;;;;42.80;21.90;;;;;;;-1.43;100.00;101686.88;5043943;28;20457;-74
2022/03/05 08:40:12;;;;;;;45.93;21.47;;;;;;;-1.41;100.00;101698.88;5053149;28;20460;-74
2022/03/05 08:42:38;;;;;;;46.60;21.60;;;;;;;-1.25;100.00;101694.38;5049681;28;20206;-74
2022/03/05 08:45:06;;;;;;;50.27;23.40;;;;;;;-1.17;100.00;101699.00;5051493;28;20222;-74
2022/03/05 08:47:33;;;;;;;46.87;23.27;;;;;;;-1.09;100.00;101701.88;5049449;28;20195;-74
2022/03/05 08:49:59;;;;;;;47.53;23.73;;;;;;;-1.01;100.00;101699.59;5048148;28;20461;-74
2022/03/05 08:52:26;;;;;;;48.63;24.87;;;;;;;-0.87;100.00;101703.53;5047739;28;20246;-74
2022/03/05 08:54:53;;;;;;;51.97;25.00;;;;;;;-0.75;100.00;101703.16;5048943;28;20199;-74
2022/03/05 08:57:20;;;;;;;48.57;24.23;;;;;;;-0.65;100.00;101706.91;5051573;28;20199;-74
2022/03/05 08:59:46;;;;;;;45.40;23.17;;;;;;;-0.52;100.00;101708.25;5048522;28;20199;-74
2022/03/05 09:02:12;;;;;;;46.63;22.40;;;;;;;-0.34;100.00;101715.72;5048750;28;20215;-74
2022/03/05 09:04:39;;;;;;;40.87;20.33;;;;;;;-0.25;100.00;101718.59;5049316;28;20199;-74
2022/03/05 09:07:05;;;;;;;36.33;20.20;;;;;;;-0.14;100.00;101708.72;5048784;28;20771;-74
2022/03/05 09:09:32;;;;;;;33.20;17.80;;;;;;;-0.15;100.00;101712.13;5047434;28;20226;-74
2022/03/05 09:11:59;;;;;;;34.50;18.27;;;;;;;-0.04;100.00;101716.78;5049209;28;20219;-74
2022/03/05 09:14:26;;;;;;;28.67;16.40;;;;;;;0.03;100.00;101710.19;5048437;28;20199;-74
2022/03/05 09:16:52;;;;;;;26.97;15.33;;;;;;;0.22;100.00;101718.53;5049006;28;20191;-74
2022/03/05 09:19:18;;;;;;;25.27;13.47;;;;;;;0.31;100.00;101716.25;5047230;28;20202;-74
2022/03/05 09:21:45;;;;;;;21.90;12.90;;;;;;;0.45;100.00;101730.41;5051113;28;20234;-74
2022/03/05 09:24:12;;;;;;;18.57;12.17;;;;;;;0.48;100.00;101721.97;5045908;28;20207;-74
2022/03/05 09:26:38;;;;;;;21.17;12.40;;;;;;;0.53;100.00;101717.84;5047956;28;20212;-74
2022/03/05 09:29:06;;;;;;;15.90;9.83;;;;;;;0.61;99.64;101720.66;5049323;28;20574;-74
2022/03/05 09:31:32;;;;;;;18.23;9.77;;;;;;;0.75;98.15;101721.97;5046844;28;20230;-74
2022/03/05 09:33:59;;;;;;;17.30;9.60;;;;;;;0.80;98.26;101722.13;5045058;28;20231;-74
2022/03/05 09:36:25;;;;;;;17.17;9.20;;;;;;;0.85;97.51;101720.56;5045388;28;20199;-75
2022/03/05 09:38:52;;;;;;;13.00;7.80;;;;;;;0.91;97.14;101718.16;5045578;28;20412;-74
2022/03/05 09:41:19;;;;;;;12.63;8.23;;;;;;;0.93;95.72;101716.50;5043972;28;20216;-75
2022/03/05 09:43:45;;;;;;;11.33;7.23;;;;;;;0.94;96.98;101718.28;5046014;28;20207;-75
2022/03/05 09:46:13;;;;;;;12.13;7.33;;;;;;;1.11;93.95;101719.66;5047400;28;20219;-74
2022/03/05 09:48:41;;;;;;;12.47;7.17;;;;;;;1.19;93.87;101719.00;5047435;28;20579;-74
2022/03/05 09:51:08;;;;;;;14.07;8.73;;;;;;;1.23;94.12;101715.69;5047738;28;20302;-75
2022/03/05 09:53:34;;;;;;;12.47;7.03;;;;;;;1.44;90.51;101718.03;5048661;28;20198;-74
2022/03/05 09:56:00;;;;;;;11.10;6.90;;;;;;;1.54;90.06;101716.59;5046305;28;20351;-74
2022/03/05 09:58:27;;;;;;;13.90;6.80;;;;;;;1.54;89.41;101722.59;5050260;28;20204;-74
2022/03/05 10:00:54;;;;;;;19.60;9.37;;;;;;;1.55;91.04;101713.19;5049113;28;20614;-75
2022/03/05 10:03:22;;;;;;;23.23;12.57;;;;;;;1.70;89.17;101716.19;5047814;28;20328;-75
2022/03/05 10:05:49;;;;;;;9.07;5.43;;;;;;;1.85;86.74;101719.19;5047849;28;20211;-75
2022/03/05 10:08:16;;;;;;;9.07;5.23;;;;;;;1.92;87.07;101727.94;5048810;28;20221;-75
2022/03/05 10:10:46;;;;;;;9.93;5.60;;;;;;;2.03;85.76;101723.94;5044745;28;20300;-74
2022/03/05 10:13:24;;;;;;;8.33;5.00;;;;;;;2.11;85.57;101723.28;5048169;28;20192;-74
2022/03/05 10:15:54;;;;;;;7.53;5.30;;;;;;;2.08;81.84;101730.09;5047496;28;20735;-75
2022/03/05 10:18:28;;;;;;;5.53;3.90;;;;;;;2.12;81.08;101725.91;5047217;28;20285;-75
2022/03/05 10:20:55;;;;;;;7.60;4.10;;;;;;;2.30;79.67;101737.50;5044637;28;20222;-75
2022/03/05 10:23:22;;;;;;;6.37;3.93;;;;;;;2.38;78.26;101734.28;5046572;28;20245;-74
2022/03/05 10:25:50;;;;;;;6.97;3.93;;;;;;;2.40;76.72;101731.75;5044946;28;20700;-75
2022/03/05 10:28:19;;;;;;;6.10;3.97;;;;;;;2.31;76.72;101739.25;5045637;28;20215;-75
2022/03/05 10:30:47;;;;;;;5.20;3.97;;;;;;;2.18;77.01;101733.78;5043803;28;20223;-75
2022/03/05 10:33:25;;;;;;;6.97;4.03;;;;;;;2.14;78.59;101731.09;5042673;28;20211;-74
2022/03/05 10:35:53;;;;;;;7.60;3.97;;;;;;;2.15;78.79;101732.84;5043655;28;20206;-75
2022/03/05 10:38:20;;;;;;;7.17;3.77;;;;;;;2.14;77.38;101729.38;5043786;28;20199;-74
2022/03/05 10:40:54;;;;;;;6.83;4.10;;;;;;;2.28;78.47;101716.88;5045175;28;20230;-74
2022/03/05 10:43:20;;;;;;;8.27;4.30;;;;;;;2.50;78.96;101715.72;5045146;28;20195;-74
2022/03/05 10:45:53;;;;;;;8.87;4.37;;;;;;;2.67;79.00;101710.09;5045578;28;20219;-74
2022/03/05 10:48:25;;;;;;;6.40;4.17;;;;;;;2.89;77.34;101722.63;5048969;28;20551;-74
2022/03/05 10:50:58;;;;;;;6.27;3.83;;;;;;;3.12;77.34;101725.72;5041137;28;20690;-74
2022/03/05 10:53:39;;;;;;;6.17;3.90;;;;;;;3.20;74.76;101724.19;5042876;28;20204;-74
2022/03/05 10:56:33;;;;;;;6.00;3.33;;;;;;;3.39;71.94;101734.88;5047425;28;20198;-75
2022/03/05 10:59:06;;;;;;;5.97;3.23;;;;;;;3.43;68.40;101736.72;5058676;28;20934;-74
2022/03/05 11:01:34;;;;;;;5.40;3.97;;;;;;;3.49;69.06;101726.50;5045332;28;20597;-74
2022/03/05 11:04:01;;;;;;;5.67;2.97;;;;;;;3.64;65.87;101728.53;5040602;28;20199;-75
2022/03/05 11:06:29;;;;;;;4.53;3.10;;;;;;;3.82;66.92;101721.97;5059527;28;20211;-74
2022/03/05 11:08:57;;;;;;;5.10;2.87;;;;;;;3.89;65.87;101711.81;5043328;28;20198;-74
2022/03/05 11:11:24;;;;;;;3.17;2.30;;;;;;;3.93;64.42;101716.19;5044608;28;20612;-74
2022/03/05 11:13:50;;;;;;;4.17;2.80;;;;;;;4.00;64.40;101713.75;5046209;28;20684;-74
2022/03/05 11:16:19;;;;;;;8.13;5.80;;;;;;;3.85;63.19;101706.56;5043328;28;20208;-75
2022/03/05 11:18:45;;;;;;;6.40;3.17;;;;;;;3.87;62.41;101705.75;5045855;28;20820;-74